sensor_id;sensor_type;location;lat;lon;timestamp;pressure;altitude;pressure_sealevel;temperature;humidity
2761;BME280;15420;48.636;9.798;2023-02-19T00:01:13;97162.31;;;11.88;100.00
2761;BME280;15420;48.636;9.798;2023-02-19T00:03:40;97159.72;;;11.87;100.00
2761;BME280;15420;48.636;9.798;2023-02-19T00:06:10;97158.91;;;11.89;100.00
2761;BME280;15420;48.636;9.798;2023-02-19T00:08:37;97150.22;;;11.86;100.00
2761;BME280;15420;48.636;9.798;2023-02-19T00:11:08;97146.81;;;11.87;100.00
2761;BME280;15420;48.636;9.798;2023-02-19T00:13:37;97148.44;;;11.83;100.00
2761;BME280;15420;48.636;9.798;2023-02-19T00:18:36;97140.66;;;11.82;100.00
2761;BME280;15420;48.636;9.798;2023-02-19T00:21:03;97151.03;;;11.83;100.00
2761;BME280;15420;48.636;9.798;2023-02-19T00:23:30;97147.50;;;11.79;100.00
2761;BME280;15420;48.636;9.798;2023-02-19T00:26:01;97144.88;;;11.78;100.00
2761;BME280;15420;48.636;9.798;2023-02-19T00:28:30;97141.47;;;11.79;100.00
2761;BME280;15420;48.636;9.798;2023-02-19T00:31:14;97132.81;;;11.77;100.00
2761;BME280;15420;48.636;9.798;2023-02-19T00:33:41;97135.31;;;11.74;100.00
2761;BME280;15420;48.636;9.798;2023-02-19T00:36:09;97132.69;;;11.72;100.00
2761;BME280;15420;48.636;9.798;2023-02-19T00:38:36;97132.69;;;11.72;100.00
2761;BME280;15420;48.636;9.798;2023-02-19T00:41:06;97129.22;;;11.72;100.00
2761;BME280;15420;48.636;9.798;2023-02-19T00:43:54;97131.84;;;11.73;100.00
2761;BME280;15420;48.636;9.798;2023-02-19T00:46:24;97124.91;;;11.71;100.00
2761;BME280;15420;48.636;9.798;2023-02-19T00:48:54;97124.88;;;11.69;100.00
2761;BME280;15420;48.636;9.798;2023-02-19T00:51:23;97124.81;;;11.66;100.00
2761;BME280;15420;48.636;9.798;2023-02-19T00:53:52;97120.47;;;11.65;100.00
2761;BME280;15420;48.636;9.798;2023-02-19T00:56:20;97123.06;;;11.65;100.00
2761;BME280;15420;48.636;9.798;2023-02-19T00:58:47;97128.22;;;11.65;100.00
2761;BME280;15420;48.636;9.798;2023-02-19T01:01:16;97130.81;;;11.65;100.00
2761;BME280;15420;48.636;9.798;2023-02-19T01:03:45;97127.34;;;11.65;100.00
2761;BME280;15420;48.636;9.798;2023-02-19T01:06:14;97131.66;;;11.64;100.00
2761;BME280;15420;48.636;9.798;2023-02-19T01:08:43;97131.66;;;11.64;100.00
2761;BME280;15420;48.636;9.798;2023-02-19T01:11:10;97134.19;;;11.63;100.00
2761;BME280;15420;48.636;9.798;2023-02-19T01:13:40;97130.75;;;11.62;100.00
2761;BME280;15420;48.636;9.798;2023-02-19T01:18:40;97124.72;;;11.62;100.00
2761;BME280;15420;48.636;9.798;2023-02-19T01:21:08;97123.00;;;11.62;100.00
2761;BME280;15420;48.636;9.798;2023-02-19T01:23:35;97122.97;;;11.61;100.00
2761;BME280;15420;48.636;9.798;2023-02-19T01:26:09;97127.28;;;11.62;100.00
2761;BME280;15420;48.636;9.798;2023-02-19T01:28:38;97117.75;;;11.59;100.00
2761;BME280;15420;48.636;9.798;2023-02-19T01:31:09;97108.28;;;11.58;100.00
2761;BME280;15420;48.636;9.798;2023-02-19T01:33:39;97111.75;;;11.60;100.00
2761;BME280;15420;48.636;9.798;2023-02-19T01:36:05;97103.97;;;11.57;100.00
2761;BME280;15420;48.636;9.798;2023-02-19T01:38:32;97102.22;;;11.56;100.00
2761;BME280;15420;48.636;9.798;2023-02-19T01:41:04;97091.88;;;11.56;100.00
2761;BME280;15420;48.636;9.798;2023-02-19T01:43:34;97095.31;;;11.55;100.00
2761;BME280;15420;48.636;9.798;2023-02-19T01:46:02;97087.53;;;11.54;100.00
2761;BME280;15420;48.636;9.798;2023-02-19T01:48:36;97092.69;;;11.54;100.00
2761;BME280;15420;48.636;9.798;2023-02-19T01:51:06;97094.41;;;11.53;100.00
2761;BME280;15420;48.636;9.798;2023-02-19T01:53:37;97100.41;;;11.52;100.00
2761;BME280;15420;48.636;9.798;2023-02-19T01:56:04;97091.81;;;11.53;100.00
2761;BME280;15420;48.636;9.798;2023-02-19T01:58:36;97082.31;;;11.51;100.00
2761;BME280;15420;48.636;9.798;2023-02-19T02:01:05;97076.25;;;11.48;100.00
2761;BME280;15420;48.636;9.798;2023-02-19T02:03:35;97078.81;;;11.48;100.00
2761;BME280;15420;48.636;9.798;2023-02-19T02:06:21;97064.22;;;11.49;100.00
2761;BME280;15420;48.636;9.798;2023-02-19T02:08:55;97062.41;;;11.45;100.00
2761;BME280;15420;48.636;9.798;2023-02-19T02:11:47;97063.25;;;11.44;100.00
2761;BME280;15420;48.636;9.798;2023-02-19T02:14:17;97058.06;;;11.42;100.00
2761;BME280;15420;48.636;9.798;2023-02-19T02:19:49;97050.34;;;11.42;100.00
2761;BME280;15420;48.636;9.798;2023-02-19T02:30:52;97055.50;;;11.44;100.00
2761;BME280;15420;48.636;9.798;2023-02-19T02:33:35;97045.97;;;11.40;100.00
2761;BME280;15420;48.636;9.798;2023-02-19T02:36:13;97060.63;;;11.41;100.00
2761;BME280;15420;48.636;9.798;2023-02-19T02:38:45;97052.88;;;11.41;100.00
2761;BME280;15420;48.636;9.798;2023-02-19T02:41:13;97047.69;;;11.39;100.00
2761;BME280;15420;48.636;9.798;2023-02-19T02:43:40;97045.97;;;11.40;100.00
2761;BME280;15420;48.636;9.798;2023-02-19T02:46:14;97041.72;;;11.42;100.00
2761;BME280;15420;48.636;9.798;2023-02-19T02:53:54;97045.16;;;11.41;100.00
2761;BME280;15420;48.636;9.798;2023-02-19T02:56:40;97040.00;;;11.42;100.00
2761;BME280;15420;48.636;9.798;2023-02-19T02:59:10;97033.19;;;11.46;100.00
2761;BME280;15420;48.636;9.798;2023-02-19T03:05:16;97034.09;;;11.48;100.00
2761;BME280;15420;48.636;9.798;2023-02-19T03:08:15;97039.22;;;11.46;100.00
2761;BME280;15420;48.636;9.798;2023-02-19T03:10:50;97014.22;;;11.42;100.00
2761;BME280;15420;48.636;9.798;2023-02-19T03:13:32;97026.34;;;11.48;100.00
2761;BME280;15420;48.636;9.798;2023-02-19T03:16:27;97016.81;;;11.45;100.00
2761;BME280;15420;48.636;9.798;2023-02-19T03:19:15;97007.31;;;11.41;100.00
2761;BME280;15420;48.636;9.798;2023-02-19T03:24:24;96997.91;;;11.45;100.00
2761;BME280;15420;48.636;9.798;2023-02-19T03:27:13;97008.22;;;11.43;100.00
2761;BME280;15420;48.636;9.798;2023-02-19T03:29:43;97017.66;;;11.44;100.00
2761;BME280;15420;48.636;9.798;2023-02-19T03:32:35;97002.28;;;11.49;100.00
2761;BME280;15420;48.636;9.798;2023-02-19T03:35:09;97007.41;;;11.47;100.00
2761;BME280;15420;48.636;9.798;2023-02-19T03:37:43;97003.16;;;11.50;100.00
2761;BME280;15420;48.636;9.798;2023-02-19T03:40:11;97008.50;;;11.59;100.00
2761;BME280;15420;48.636;9.798;2023-02-19T03:43:01;97018.94;;;11.65;100.00
2761;BME280;15420;48.636;9.798;2023-02-19T03:45:48;97018.03;;;11.61;100.00
2761;BME280;15420;48.636;9.798;2023-02-19T03:53:50;97013.66;;;11.59;100.00
2761;BME280;15420;48.636;9.798;2023-02-19T03:56:33;97009.22;;;11.52;100.00
2761;BME280;15420;48.636;9.798;2023-02-19T03:59:20;97007.59;;;11.57;100.00
2761;BME280;15420;48.636;9.798;2023-02-19T04:01:59;97015.34;;;11.57;100.00
2761;BME280;15420;48.636;9.798;2023-02-19T04:04:35;97018.81;;;11.59;100.00
2761;BME280;15420;48.636;9.798;2023-02-19T04:07:03;97026.44;;;11.53;100.00
2761;BME280;15420;48.636;9.798;2023-02-19T04:09:36;97031.59;;;11.53;100.00
2761;BME280;15420;48.636;9.798;2023-02-19T04:12:07;97025.47;;;11.47;100.00
2761;BME280;15420;48.636;9.798;2023-02-19T04:14:45;97026.41;;;11.51;100.00
2761;BME280;15420;48.636;9.798;2023-02-19T04:17:27;97023.13;;;11.58;100.00
2761;BME280;15420;48.636;9.798;2023-02-19T04:19:56;97030.75;;;11.54;100.00
2761;BME280;15420;48.636;9.798;2023-02-19T04:22:28;97033.44;;;11.58;100.00
2761;BME280;15420;48.636;9.798;2023-02-19T04:24:56;97046.25;;;11.54;100.00
2761;BME280;15420;48.636;9.798;2023-02-19T04:27:26;97049.50;;;11.45;100.00
2761;BME280;15420;48.636;9.798;2023-02-19T04:29:54;97048.72;;;11.49;100.00
2761;BME280;15420;48.636;9.798;2023-02-19T04:32:20;97053.81;;;11.46;100.00
2761;BME280;15420;48.636;9.798;2023-02-19T04:34:46;97062.53;;;11.51;100.00
2761;BME280;15420;48.636;9.798;2023-02-19T04:37:15;97062.41;;;11.45;100.00
2761;BME280;15420;48.636;9.798;2023-02-19T04:39:43;97077.91;;;11.46;100.00
2761;BME280;15420;48.636;9.798;2023-02-19T04:42:10;97070.22;;;11.48;100.00
2761;BME280;15420;48.636;9.798;2023-02-19T04:44:38;97067.59;;;11.46;100.00
2761;BME280;15420;48.636;9.798;2023-02-19T04:47:04;97070.06;;;11.40;100.00
2761;BME280;15420;48.636;9.798;2023-02-19T04:49:33;97065.81;;;11.44;100.00
2761;BME280;15420;48.636;9.798;2023-02-19T04:52:01;97071.78;;;11.40;100.00
2761;BME280;15420;48.636;9.798;2023-02-19T04:54:27;97076.97;;;11.41;100.00
2761;BME280;15420;48.636;9.798;2023-02-19T04:56:56;97069.19;;;11.40;100.00
2761;BME280;15420;48.636;9.798;2023-02-19T04:59:22;97075.94;;;11.33;100.00
2761;BME280;15420;48.636;9.798;2023-02-19T05:01:48;97080.16;;;11.30;100.00
2761;BME280;15420;48.636;9.798;2023-02-19T05:04:17;97082.66;;;11.27;100.00
2761;BME280;15420;48.636;9.798;2023-02-19T05:06:46;97079.25;;;11.28;100.00
2761;BME280;15420;48.636;9.798;2023-02-19T05:09:12;97088.81;;;11.33;100.00
2761;BME280;15420;48.636;9.798;2023-02-19T05:11:38;97079.28;;;11.29;100.00
2761;BME280;15420;48.636;9.798;2023-02-19T05:14:04;97083.84;;;11.41;100.00
2761;BME280;15420;48.636;9.798;2023-02-19T05:16:30;97076.81;;;11.34;100.00
2761;BME280;15420;48.636;9.798;2023-02-19T05:18:59;97084.41;;;11.28;100.00
2761;BME280;15420;48.636;9.798;2023-02-19T05:21:25;97080.13;;;11.28;100.00
2761;BME280;15420;48.636;9.798;2023-02-19T05:23:51;97080.88;;;11.24;100.00
2761;BME280;15420;48.636;9.798;2023-02-19T05:26:21;97074.78;;;11.21;100.00
2761;BME280;15420;48.636;9.798;2023-02-19T05:28:52;97076.34;;;11.14;100.00
2761;BME280;15420;48.636;9.798;2023-02-19T05:31:23;97090.97;;;11.15;100.00
2761;BME280;15420;48.636;9.798;2023-02-19T05:33:53;97092.63;;;11.11;100.00
2761;BME280;15420;48.636;9.798;2023-02-19T05:36:20;97090.88;;;11.10;100.00
2761;BME280;15420;48.636;9.798;2023-02-19T05:38:52;97105.44;;;11.08;100.00
2761;BME280;15420;48.636;9.798;2023-02-19T05:41:26;97092.47;;;11.05;100.00
2761;BME280;15420;48.636;9.798;2023-02-19T05:43:56;97094.13;;;11.03;100.00
2761;BME280;15420;48.636;9.798;2023-02-19T05:46:28;97103.63;;;11.04;100.00
2761;BME280;15420;48.636;9.798;2023-02-19T05:48:55;97107.88;;;11.02;100.00
2761;BME280;15420;48.636;9.798;2023-02-19T05:51:24;97115.53;;;10.99;100.00
2761;BME280;15420;48.636;9.798;2023-02-19T05:53:51;97100.81;;;10.95;100.00
2761;BME280;15420;48.636;9.798;2023-02-19T05:58:49;97117.84;;;10.89;100.00
2761;BME280;15420;48.636;9.798;2023-02-19T06:01:20;97126.44;;;10.89;100.00
2761;BME280;15420;48.636;9.798;2023-02-19T06:03:46;97124.81;;;10.93;100.00
2761;BME280;15420;48.636;9.798;2023-02-19T06:06:16;97131.56;;;10.88;100.00
2761;BME280;15420;48.636;9.798;2023-02-19T06:08:43;97127.13;;;10.82;100.00
2761;BME280;15420;48.636;9.798;2023-02-19T06:11:09;97127.22;;;10.87;100.00
2761;BME280;15420;48.636;9.798;2023-02-19T06:13:38;97131.38;;;10.80;100.00
2761;BME280;15420;48.636;9.798;2023-02-19T06:16:05;97136.56;;;10.81;100.00
2761;BME280;15420;48.636;9.798;2023-02-19T06:18:32;97139.97;;;10.80;100.00
2761;BME280;15420;48.636;9.798;2023-02-19T06:21:03;97138.25;;;10.81;100.00
2761;BME280;15420;48.636;9.798;2023-02-19T06:23:30;97146.91;;;10.83;100.00
2761;BME280;15420;48.636;9.798;2023-02-19T06:28:43;97158.06;;;10.82;100.00
2761;BME280;15420;48.636;9.798;2023-02-19T06:31:12;97151.97;;;10.80;100.00
2761;BME280;15420;48.636;9.798;2023-02-19T06:33:39;97157.72;;;10.70;100.00
2761;BME280;15420;48.636;9.798;2023-02-19T06:36:08;97167.19;;;10.71;100.00
2761;BME280;15420;48.636;9.798;2023-02-19T06:38:37;97163.72;;;10.69;100.00
2761;BME280;15420;48.636;9.798;2023-02-19T06:41:05;97178.31;;;10.68;100.00
2761;BME280;15420;48.636;9.798;2023-02-19T06:43:33;97180.00;;;10.68;100.00
2761;BME280;15420;48.636;9.798;2023-02-19T06:46:03;97181.00;;;10.73;100.00
2761;BME280;15420;48.636;9.798;2023-02-19T06:48:31;97190.22;;;10.65;100.00
2761;BME280;15420;48.636;9.798;2023-02-19T06:50:57;97190.47;;;10.74;100.00
2761;BME280;15420;48.636;9.798;2023-02-19T06:53:24;97193.69;;;10.65;100.00
2761;BME280;15420;48.636;9.798;2023-02-19T06:55:58;97195.31;;;10.62;100.00
2761;BME280;15420;48.636;9.798;2023-02-19T06:58:24;97203.25;;;10.69;100.00
2761;BME280;15420;48.636;9.798;2023-02-19T07:00:50;97207.34;;;10.63;100.00
2761;BME280;15420;48.636;9.798;2023-02-19T07:03:16;97215.88;;;10.60;100.00
2761;BME280;15420;48.636;9.798;2023-02-19T07:05:47;97225.31;;;10.60;100.00
2761;BME280;15420;48.636;9.798;2023-02-19T07:08:13;97214.22;;;10.62;100.00
2761;BME280;15420;48.636;9.798;2023-02-19T07:10:42;97214.03;;;10.56;100.00
2761;BME280;15420;48.636;9.798;2023-02-19T07:13:08;97236.50;;;10.60;100.00
2761;BME280;15420;48.636;9.798;2023-02-19T07:15:34;97244.13;;;10.57;100.00
2761;BME280;15420;48.636;9.798;2023-02-19T07:18:01;97251.69;;;10.51;100.00
2761;BME280;15420;48.636;9.798;2023-02-19T07:20:30;97255.03;;;10.48;100.00
2761;BME280;15420;48.636;9.798;2023-02-19T07:22:56;97255.69;;;10.40;100.00
2761;BME280;15420;48.636;9.798;2023-02-19T07:25:22;97255.78;;;10.44;100.00
2761;BME280;15420;48.636;9.798;2023-02-19T07:27:51;97246.94;;;10.35;100.00
2761;BME280;15420;48.636;9.798;2023-02-19T07:30:17;97236.47;;;10.29;100.00
2761;BME280;15420;48.636;9.798;2023-02-19T07:32:48;97260.34;;;10.23;100.00
2761;BME280;15420;48.636;9.798;2023-02-19T07:35:14;97250.00;;;10.22;100.00
2761;BME280;15420;48.636;9.798;2023-02-19T07:37:42;97262.03;;;10.23;100.00
2761;BME280;15420;48.636;9.798;2023-02-19T07:40:09;97258.59;;;10.22;100.00
2761;BME280;15420;48.636;9.798;2023-02-19T07:42:35;97266.00;;;10.13;100.00
2761;BME280;15420;48.636;9.798;2023-02-19T07:45:01;97273.91;;;10.19;100.00
2761;BME280;15420;48.636;9.798;2023-02-19T07:47:28;97276.41;;;10.16;100.00
2761;BME280;15420;48.636;9.798;2023-02-19T07:49:54;97274.59;;;10.13;100.00
2761;BME280;15420;48.636;9.798;2023-02-19T07:52:20;97264.22;;;10.10;100.00
2761;BME280;15420;48.636;9.798;2023-02-19T07:54:49;97274.81;;;10.20;100.00
2761;BME280;15420;48.636;9.798;2023-02-19T07:57:15;97262.56;;;10.12;100.00
2761;BME280;15420;48.636;9.798;2023-02-19T07:59:43;97265.13;;;10.12;100.00
2761;BME280;15420;48.636;9.798;2023-02-19T08:02:17;97269.50;;;10.15;100.00
2761;BME280;15420;48.636;9.798;2023-02-19T08:05:02;97275.63;;;10.19;100.00
2761;BME280;15420;48.636;9.798;2023-02-19T08:07:36;97280.69;;;10.15;100.00
2761;BME280;15420;48.636;9.798;2023-02-19T08:10:03;97274.56;;;10.12;100.00
2761;BME280;15420;48.636;9.798;2023-02-19T08:13:01;97279.03;;;10.18;100.00
2761;BME280;15420;48.636;9.798;2023-02-19T08:15:53;97281.47;;;10.13;100.00
2761;BME280;15420;48.636;9.798;2023-02-19T08:18:25;97282.47;;;10.18;100.00
2761;BME280;15420;48.636;9.798;2023-02-19T08:20:52;97274.59;;;10.13;100.00
2761;BME280;15420;48.636;9.798;2023-02-19T08:23:19;97275.47;;;10.14;100.00
2761;BME280;15420;48.636;9.798;2023-02-19T08:25:49;97284.06;;;10.14;100.00
2761;BME280;15420;48.636;9.798;2023-02-19T08:28:18;97288.44;;;10.17;100.00
2761;BME280;15420;48.636;9.798;2023-02-19T08:30:46;97281.91;;;10.27;100.00
2761;BME280;15420;48.636;9.798;2023-02-19T08:33:18;97290.28;;;10.20;100.00
2761;BME280;15420;48.636;9.798;2023-02-19T08:35:45;97301.59;;;10.25;100.00
2761;BME280;15420;48.636;9.798;2023-02-19T08:38:12;97308.34;;;10.21;100.00
2761;BME280;15420;48.636;9.798;2023-02-19T08:40:39;97318.78;;;10.26;100.00
2761;BME280;15420;48.636;9.798;2023-02-19T08:43:10;97317.00;;;10.23;100.00
2761;BME280;15420;48.636;9.798;2023-02-19T08:45:37;97332.50;;;10.25;100.00
2761;BME280;15420;48.636;9.798;2023-02-19T08:48:04;97324.78;;;10.25;100.00
2761;BME280;15420;48.636;9.798;2023-02-19T08:50:30;97330.78;;;10.25;100.00
2761;BME280;15420;48.636;9.798;2023-02-19T08:52:59;97330.09;;;10.31;100.00
2761;BME280;15420;48.636;9.798;2023-02-19T08:55:28;97327.56;;;10.32;100.00
2761;BME280;15420;48.636;9.798;2023-02-19T08:57:55;97332.03;;;10.38;100.00
2761;BME280;15420;48.636;9.798;2023-02-19T09:00:23;97328.66;;;10.40;100.00
2761;BME280;15420;48.636;9.798;2023-02-19T09:02:50;97318.41;;;10.42;100.00
2761;BME280;15420;48.636;9.798;2023-02-19T09:05:18;97334.78;;;10.44;100.00
2761;BME280;15420;48.636;9.798;2023-02-19T09:07:44;97320.28;;;10.47;100.00
2761;BME280;15420;48.636;9.798;2023-02-19T09:10:12;97331.41;;;10.46;100.00
2761;BME280;15420;48.636;9.798;2023-02-19T09:12:43;97337.44;;;10.47;100.00
2761;BME280;15420;48.636;9.798;2023-02-19T09:15:11;97337.03;;;10.62;100.00
2761;BME280;15420;48.636;9.798;2023-02-19T09:17:37;97336.34;;;10.67;100.00
2761;BME280;15420;48.636;9.798;2023-02-19T09:20:04;97347.44;;;10.65;100.00
2761;BME280;15420;48.636;9.798;2023-02-19T09:22:32;97350.13;;;10.69;100.00
2761;BME280;15420;48.636;9.798;2023-02-19T09:24:59;97351.00;;;10.70;100.00
2761;BME280;15420;48.636;9.798;2023-02-19T09:27:28;97345.53;;;10.59;100.00
2761;BME280;15420;48.636;9.798;2023-02-19T09:29:56;97359.09;;;10.54;100.00
2761;BME280;15420;48.636;9.798;2023-02-19T09:32:24;97363.38;;;10.53;100.00
2761;BME280;15420;48.636;9.798;2023-02-19T09:34:51;97358.38;;;10.58;100.00
2761;BME280;15420;48.636;9.798;2023-02-19T09:37:17;97362.66;;;10.57;100.00
2761;BME280;15420;48.636;9.798;2023-02-19T09:39:47;97364.31;;;10.55;100.00
2761;BME280;15420;48.636;9.798;2023-02-19T09:42:17;97364.41;;;10.58;100.00
2761;BME280;15420;48.636;9.798;2023-02-19T09:44:48;97367.91;;;10.60;100.00
2761;BME280;15420;48.636;9.798;2023-02-19T09:47:18;97371.41;;;10.62;100.00
2761;BME280;15420;48.636;9.798;2023-02-19T09:49:54;97385.16;;;10.63;100.00
2761;BME280;15420;48.636;9.798;2023-02-19T09:54:48;97392.34;;;10.73;100.00
2761;BME280;15420;48.636;9.798;2023-02-19T09:57:19;97396.03;;;10.81;100.00
2761;BME280;15420;48.636;9.798;2023-02-19T09:59:52;97395.84;;;10.75;100.00
2761;BME280;15420;48.636;9.798;2023-02-19T10:02:23;97393.22;;;10.73;100.00
2761;BME280;15420;48.636;9.798;2023-02-19T10:04:51;97393.22;;;10.73;100.00
2761;BME280;15420;48.636;9.798;2023-02-19T10:07:27;97392.53;;;10.79;100.00
2761;BME280;15420;48.636;9.798;2023-02-19T10:12:48;97400.91;;;10.72;100.00
2761;BME280;15420;48.636;9.798;2023-02-19T10:15:57;97404.59;;;10.80;100.00
2761;BME280;15420;48.636;9.798;2023-02-19T10:18:47;97388.09;;;10.75;100.00
2761;BME280;15420;48.636;9.798;2023-02-19T10:21:24;97392.44;;;10.76;100.00
2761;BME280;15420;48.636;9.798;2023-02-19T10:23:53;97384.75;;;10.77;100.00
2761;BME280;15420;48.636;9.798;2023-02-19T10:26:24;97385.66;;;10.79;100.00
2761;BME280;15420;48.636;9.798;2023-02-19T10:28:50;97372.81;;;10.81;100.00
2761;BME280;15420;48.636;9.798;2023-02-19T10:31:23;97384.19;;;10.88;100.00
2761;BME280;15420;48.636;9.798;2023-02-19T10:33:55;97379.94;;;10.90;100.00
2761;BME280;15420;48.636;9.798;2023-02-19T10:36:30;97375.75;;;10.93;99.44
2761;BME280;15420;48.636;9.798;2023-02-19T10:39:07;97383.66;;;10.99;98.50
2761;BME280;15420;48.636;9.798;2023-02-19T10:41:40;97361.25;;;10.97;97.40
2761;BME280;15420;48.636;9.798;2023-02-19T10:44:15;97382.94;;;11.03;96.70
2761;BME280;15420;48.636;9.798;2023-02-19T10:46:50;97391.50;;;11.02;95.60
2761;BME280;15420;48.636;9.798;2023-02-19T10:52:11;97388.44;;;11.16;95.37
2761;BME280;15420;48.636;9.798;2023-02-19T10:54:48;97388.47;;;11.17;94.20
2761;BME280;15420;48.636;9.798;2023-02-19T10:59:54;97389.50;;;11.22;93.11
2761;BME280;15420;48.636;9.798;2023-02-19T11:02:23;97383.50;;;11.23;92.44
2761;BME280;15420;48.636;9.798;2023-02-19T11:07:31;97395.53;;;11.23;91.09
2761;BME280;15420;48.636;9.798;2023-02-19T11:09:58;97409.50;;;11.31;90.50
2761;BME280;15420;48.636;9.798;2023-02-19T11:12:30;97388.25;;;11.39;89.96
2761;BME280;15420;48.636;9.798;2023-02-19T11:14:57;97386.53;;;11.40;88.58
2761;BME280;15420;48.636;9.798;2023-02-19T11:17:28;97385.84;;;11.47;89.23
2761;BME280;15420;48.636;9.798;2023-02-19T11:20:03;97386.84;;;11.52;89.19
2761;BME280;15420;48.636;9.798;2023-02-19T11:22:34;97385.22;;;11.56;88.58
2761;BME280;15420;48.636;9.798;2023-02-19T11:28:05;97375.25;;;11.69;86.42
2761;BME280;15420;48.636;9.798;2023-02-19T11:30:41;97391.69;;;11.73;87.35
2761;BME280;15420;48.636;9.798;2023-02-19T11:35:45;97373.66;;;11.74;87.11
2761;BME280;15420;48.636;9.798;2023-02-19T11:38:14;97368.63;;;11.77;87.15
2761;BME280;15420;48.636;9.798;2023-02-19T11:41:00;97367.22;;;11.90;85.65
2761;BME280;15420;48.636;9.798;2023-02-19T11:46:21;97387.06;;;11.91;85.63
2761;BME280;15420;48.636;9.798;2023-02-19T11:56:52;97403.69;;;12.02;85.08
2761;BME280;15420;48.636;9.798;2023-02-19T11:59:42;97407.19;;;12.04;84.91
2761;BME280;15420;48.636;9.798;2023-02-19T12:05:16;97407.22;;;12.06;82.88
2761;BME280;15420;48.636;9.798;2023-02-19T12:08:00;97419.50;;;12.15;84.19
2761;BME280;15420;48.636;9.798;2023-02-19T12:13:06;97434.03;;;12.11;84.36
2761;BME280;15420;48.636;9.798;2023-02-19T12:24:01;97428.03;;;12.12;82.22
2761;BME280;15420;48.636;9.798;2023-02-19T12:43:50;97411.84;;;12.19;80.39
2761;BME280;15420;48.636;9.798;2023-02-19T12:46:38;97406.13;;;12.31;80.03
2761;BME280;15420;48.636;9.798;2023-02-19T12:49:14;97411.31;;;12.32;81.40
2761;BME280;15420;48.636;9.798;2023-02-19T12:51:49;97405.44;;;12.38;80.62
2761;BME280;15420;48.636;9.798;2023-02-19T12:54:27;97411.66;;;12.46;79.55
2761;BME280;15420;48.636;9.798;2023-02-19T12:57:05;97419.25;;;12.40;79.25
2761;BME280;15420;48.636;9.798;2023-02-19T13:02:44;97392.81;;;12.52;79.07
2761;BME280;15420;48.636;9.798;2023-02-19T13:05:23;97394.56;;;12.53;78.58
2761;BME280;15420;48.636;9.798;2023-02-19T13:08:03;97404.16;;;12.58;78.89
2761;BME280;15420;48.636;9.798;2023-02-19T13:10:35;97404.16;;;12.58;78.94
2761;BME280;15420;48.636;9.798;2023-02-19T13:13:11;97410.31;;;12.63;77.44
2761;BME280;15420;48.636;9.798;2023-02-19T13:15:42;97402.63;;;12.66;77.51
2761;BME280;15420;48.636;9.798;2023-02-19T13:18:20;97400.97;;;12.70;75.71
2761;BME280;15420;48.636;9.798;2023-02-19T13:20:49;97408.66;;;12.67;77.26
2761;BME280;15420;48.636;9.798;2023-02-19T13:37:02;97410.09;;;12.54;76.85
2761;BME280;15420;48.636;9.798;2023-02-19T13:39:31;97413.44;;;12.50;76.73
2761;BME280;15420;48.636;9.798;2023-02-19T13:42:01;97403.19;;;12.53;77.15
2761;BME280;15420;48.636;9.798;2023-02-19T13:44:30;97401.31;;;12.46;75.84
2761;BME280;15420;48.636;9.798;2023-02-19T13:46:57;97404.69;;;12.43;75.43
2761;BME280;15420;48.636;9.798;2023-02-19T13:52:01;97414.16;;;12.43;76.02
2761;BME280;15420;48.636;9.798;2023-02-19T13:54:31;97402.97;;;12.42;75.60
2761;BME280;15420;48.636;9.798;2023-02-19T13:59:53;97397.97;;;12.52;75.96
2761;BME280;15420;48.636;9.798;2023-02-19T14:05:55;97389.44;;;12.56;75.00
2761;BME280;15420;48.636;9.798;2023-02-19T14:08:10;97395.31;;;12.49;75.92
2761;BME280;15420;48.636;9.798;2023-02-19T14:10:54;97392.91;;;12.56;75.80
2761;BME280;15420;48.636;9.798;2023-02-19T14:19:42;97397.19;;;12.56;77.45
2761;BME280;15420;48.636;9.798;2023-02-19T14:21:59;97396.22;;;12.51;75.93
2761;BME280;15420;48.636;9.798;2023-02-19T14:24:27;97403.94;;;12.49;76.10
2761;BME280;15420;48.636;9.798;2023-02-19T14:26:56;97399.50;;;12.42;74.93
2761;BME280;15420;48.636;9.798;2023-02-19T14:29:24;97400.44;;;12.46;75.27
2761;BME280;15420;48.636;9.798;2023-02-19T14:31:52;97397.03;;;12.48;75.88
2761;BME280;15420;48.636;9.798;2023-02-19T14:34:23;97397.81;;;12.44;75.07
2761;BME280;15420;48.636;9.798;2023-02-19T14:36:57;97406.31;;;12.38;76.40
2761;BME280;15420;48.636;9.798;2023-02-19T14:39:43;97400.16;;;12.33;76.81
2761;BME280;15420;48.636;9.798;2023-02-19T14:42:22;97421.75;;;12.35;74.42
2761;BME280;15420;48.636;9.798;2023-02-19T14:44:56;97413.03;;;12.32;74.67
2761;BME280;15420;48.636;9.798;2023-02-19T14:47:26;97418.19;;;12.32;75.96
2761;BME280;15420;48.636;9.798;2023-02-19T14:52:42;97424.44;;;12.40;77.15
2761;BME280;15420;48.636;9.798;2023-02-19T14:55:24;97429.38;;;12.31;77.40
2761;BME280;15420;48.636;9.798;2023-02-19T14:57:53;97435.47;;;12.33;79.24
2761;BME280;15420;48.636;9.798;2023-02-19T15:00:26;97433.66;;;12.30;79.86
2761;BME280;15420;48.636;9.798;2023-02-19T15:02:54;97442.97;;;12.24;78.52
2761;BME280;15420;48.636;9.798;2023-02-19T15:07:55;97450.91;;;12.31;83.25
2761;BME280;15420;48.636;9.798;2023-02-19T15:10:25;97453.34;;;12.25;84.18
2761;BME280;15420;48.636;9.798;2023-02-19T15:13:00;97459.31;;;12.23;85.25
2761;BME280;15420;48.636;9.798;2023-02-19T15:15:31;97466.03;;;12.16;85.48
2761;BME280;15420;48.636;9.798;2023-02-19T15:18:01;97458.22;;;12.13;86.49
2761;BME280;15420;48.636;9.798;2023-02-19T15:20:33;97465.84;;;12.08;85.85
2761;BME280;15420;48.636;9.798;2023-02-19T15:23:05;97475.22;;;12.05;86.77
2761;BME280;15420;48.636;9.798;2023-02-19T15:25:39;97476.88;;;12.03;87.54
2761;BME280;15420;48.636;9.798;2023-02-19T15:33:24;97499.78;;;11.91;87.70
2761;BME280;15420;48.636;9.798;2023-02-19T15:36:01;97497.78;;;11.81;88.12
2761;BME280;15420;48.636;9.798;2023-02-19T15:38:32;97489.88;;;11.76;88.78
2761;BME280;15420;48.636;9.798;2023-02-19T15:41:01;97495.94;;;11.76;88.92
2761;BME280;15420;48.636;9.798;2023-02-19T15:46:13;97479.31;;;11.67;88.76
2761;BME280;15420;48.636;9.798;2023-02-19T15:48:49;97488.75;;;11.66;88.06